Time;durP1;ratioP1;P1;durP2;ratioP2;P2;SDS_P1;SDS_P2;PMS_P1;PMS_P2;Temp;Humidity;BMP_temperature;BMP_pressure;BME280_temperature;BME280_humidity;BME280_pressure;Samples;Min_cycle;Max_cycle;Signal;HPM_P1;HPM_P2
2021/12/25 00:00:19;;;;;;;34.45;21.33;;;2.50;99.90;;;;;;5095304;28;20078;-73
2021/12/25 00:02:46;;;;;;;37.33;20.88;;;2.50;99.90;;;;;;5078392;28;20077;-73
2021/12/25 00:05:13;;;;;;;43.88;22.77;;;2.50;99.90;;;;;;5095519;28;20389;-73
2021/12/25 00:07:39;;;;;;;39.97;22.92;;;2.50;99.90;;;;;;5096910;28;20020;-73
2021/12/25 00:10:06;;;;;;;40.38;23.90;;;2.40;99.90;;;;;;5096580;28;20069;-72
2021/12/25 00:12:32;;;;;;;43.83;23.63;;;2.40;99.90;;;;;;5095004;28;20024;-73
2021/12/25 00:14:58;;;;;;;37.58;21.85;;;2.40;99.90;;;;;;5094802;28;20588;-72
2021/12/25 00:17:26;;;;;;;39.70;24.13;;;2.40;99.90;;;;;;5094909;28;20024;-72
2021/12/25 00:19:53;;;;;;;40.10;22.92;;;2.30;99.90;;;;;;5095261;28;20016;-74
2021/12/25 00:22:18;;;;;;;37.83;21.40;;;2.40;99.90;;;;;;5096263;28;20031;-73
2021/12/25 00:24:45;;;;;;;37.17;22.63;;;2.40;99.90;;;;;;5096305;28;20024;-73
2021/12/25 00:27:37;;;;;;;35.28;21.42;;;2.40;99.90;;;;;;5078890;28;20024;-73
2021/12/25 00:30:13;;;;;;;40.78;22.67;;;2.40;99.90;;;;;;5095865;28;20035;-74
2021/12/25 00:32:52;;;;;;;42.47;22.70;;;2.40;99.90;;;;;;5095164;28;20055;-74
2021/12/25 00:35:18;;;;;;;40.33;23.05;;;2.40;99.90;;;;;;5095061;28;20023;-74
2021/12/25 00:37:45;;;;;;;41.72;22.75;;;2.40;99.90;;;;;;5096358;28;20016;-73
2021/12/25 00:40:11;;;;;;;40.28;22.17;;;2.30;99.90;;;;;;5095309;28;20109;-73
2021/12/25 00:42:36;;;;;;;39.17;21.80;;;2.30;99.90;;;;;;5077447;28;20048;-73
2021/12/25 00:45:03;;;;;;;42.30;22.02;;;2.30;99.90;;;;;;5096157;28;20342;-73
2021/12/25 00:47:28;;;;;;;37.30;21.00;;;2.30;99.90;;;;;;5094305;28;20020;-74
2021/12/25 00:49:54;;;;;;;40.17;21.90;;;2.30;99.90;;;;;;5094596;28;20036;-74
2021/12/25 00:52:19;;;;;;;38.38;20.90;;;2.30;99.90;;;;;;5094283;28;20027;-74
2021/12/25 00:54:45;;;;;;;40.10;21.38;;;2.30;99.90;;;;;;5094151;28;20523;-73
2021/12/25 00:57:11;;;;;;;43.28;22.08;;;2.30;99.90;;;;;;5094455;28;20032;-72
2021/12/25 00:59:36;;;;;;;40.60;21.00;;;2.30;99.90;;;;;;5094057;28;20110;-72
2021/12/25 01:02:02;;;;;;;40.05;21.23;;;2.30;99.90;;;;;;5094324;28;20024;-73
2021/12/25 01:04:27;;;;;;;37.78;21.05;;;2.30;99.90;;;;;;5095247;28;20020;-74
2021/12/25 01:06:53;;;;;;;35.47;20.80;;;2.20;99.90;;;;;;5094433;28;20043;-74
2021/12/25 01:09:19;;;;;;;37.47;20.05;;;2.20;99.90;;;;;;5095639;28;20020;-73
2021/12/25 01:11:48;;;;;;;37.17;21.35;;;2.20;99.90;;;;;;5094453;28;20468;-74
2021/12/25 01:14:25;;;;;;;41.28;20.35;;;2.20;99.90;;;;;;5093905;28;20024;-74
2021/12/25 01:17:22;;;;;;;37.90;20.02;;;2.20;99.90;;;;;;5095247;28;20024;-73
2021/12/25 01:20:15;;;;;;;40.83;19.48;;;2.30;99.90;;;;;;5093781;28;20032;-74
2021/12/25 01:23:07;;;;;;;34.65;18.73;;;2.30;99.90;;;;;;5094703;28;20027;-74
2021/12/25 01:33:29;;;;;;;38.40;20.00;;;2.30;99.90;;;;;;5093772;28;20032;-74
2021/12/25 01:36:35;;;;;;;38.00;20.20;;;2.30;99.90;;;;;;5094564;28;20077;-74
2021/12/25 01:39:20;;;;;;;38.78;20.33;;;2.20;99.90;;;;;;5093476;28;20038;-75
2021/12/25 01:49:41;;;;;;;40.42;20.48;;;2.20;99.90;;;;;;5093213;28;20024;-74
2021/12/25 01:52:09;;;;;;;40.15;20.52;;;2.10;99.90;;;;;;5093463;28;20024;-74
2021/12/25 01:54:34;;;;;;;38.40;19.55;;;2.10;99.90;;;;;;5094897;28;20099;-74
2021/12/25 01:57:01;;;;;;;41.10;20.17;;;2.10;99.90;;;;;;5094238;28;20545;-74
2021/12/25 01:59:27;;;;;;;36.03;20.13;;;2.00;99.90;;;;;;5093793;28;20496;-74
2021/12/25 02:01:52;;;;;;;36.80;19.15;;;1.90;99.90;;;;;;5094667;28;20028;-73
2021/12/25 02:04:18;;;;;;;38.13;20.90;;;1.90;99.90;;;;;;5094686;28;20142;-74
2021/12/25 02:06:44;;;;;;;36.83;20.48;;;1.90;99.90;;;;;;5093166;28;20020;-74
2021/12/25 02:09:09;;;;;;;38.55;20.10;;;1.90;99.90;;;;;;5094332;28;20016;-74
2021/12/25 02:11:35;;;;;;;42.85;21.27;;;1.90;99.90;;;;;;5094273;28;20145;-73
2021/12/25 02:14:02;;;;;;;39.33;21.77;;;1.80;99.90;;;;;;5093077;28;20027;-74
2021/12/25 02:16:37;;;;;;;40.92;21.63;;;1.90;99.90;;;;;;5094519;28;20078;-74
2021/12/25 02:19:08;;;;;;;39.05;20.25;;;1.90;99.90;;;;;;5092699;28;20115;-74
2021/12/25 02:21:37;;;;;;;37.25;20.88;;;1.90;99.90;;;;;;5093852;28;20103;-74
2021/12/25 02:24:04;;;;;;;35.58;19.67;;;1.90;99.90;;;;;;5093471;28;20368;-73
2021/12/25 02:26:31;;;;;;;42.13;21.33;;;1.90;99.90;;;;;;5094109;28;20043;-74
2021/12/25 02:28:57;;;;;;;37.80;21.38;;;1.90;99.90;;;;;;5075689;28;20110;-74
2021/12/25 02:31:23;;;;;;;40.08;22.48;;;1.90;99.90;;;;;;5094047;28;20504;-74
2021/12/25 02:33:49;;;;;;;41.47;21.75;;;1.90;99.90;;;;;;5075677;28;20048;-74
2021/12/25 02:36:15;;;;;;;39.70;21.08;;;1.90;99.90;;;;;;5092893;28;20423;-74
2021/12/25 02:38:42;;;;;;;33.55;18.00;;;1.90;99.90;;;;;;5092437;28;20024;-73
2021/12/25 02:41:08;;;;;;;30.77;18.10;;;1.60;99.90;;;;;;5093532;28;20082;-74
2021/12/25 02:43:34;;;;;;;29.05;16.58;;;1.60;99.90;;;;;;5093184;28;20021;-73
2021/12/25 02:46:03;;;;;;;24.88;14.50;;;1.60;99.90;;;;;;5093612;28;20043;-74
2021/12/25 02:48:29;;;;;;;25.85;14.45;;;1.50;99.90;;;;;;5093865;28;20056;-74
2021/12/25 02:50:55;;;;;;;25.95;13.73;;;1.50;99.90;;;;;;5093853;28;20487;-72
2021/12/25 02:53:21;;;;;;;23.63;13.30;;;1.50;99.90;;;;;;5076382;28;20115;-74
2021/12/25 02:55:47;;;;;;;22.90;13.95;;;1.50;99.90;;;;;;5093526;28;20055;-74
2021/12/25 02:58:14;;;;;;;22.98;12.80;;;1.50;99.90;;;;;;5092621;28;20533;-73
2021/12/25 03:00:44;;;;;;;22.48;13.35;;;1.40;99.90;;;;;;5092579;28;20377;-73
2021/12/25 03:03:10;;;;;;;22.92;12.90;;;1.40;99.90;;;;;;5092118;28;20028;-74
2021/12/25 03:05:37;;;;;;;26.73;13.40;;;1.40;99.90;;;;;;5092162;28;20511;-73
2021/12/25 03:08:05;;;;;;;24.02;12.23;;;1.40;99.90;;;;;;5092194;28;20470;-73
2021/12/25 03:10:33;;;;;;;22.55;13.57;;;1.40;99.90;;;;;;5092759;28;20031;-73
2021/12/25 03:15:54;;;;;;;20.55;11.85;;;1.40;99.90;;;;;;5112246;27;20853;-73
2021/12/25 03:18:23;;;;;;;21.23;12.98;;;1.30;99.90;;;;;;5094265;28;20029;-74
2021/12/25 03:20:52;;;;;;;20.27;12.18;;;1.30;99.90;;;;;;5110117;28;20054;-74
2021/12/25 03:23:20;;;;;;;20.02;11.88;;;1.30;99.90;;;;;;5093454;28;20473;-73
2021/12/25 03:25:47;;;;;;;20.35;12.40;;;1.20;99.90;;;;;;5110114;28;20055;-72
2021/12/25 03:28:15;;;;;;;19.70;11.18;;;1.30;99.90;;;;;;5111465;28;20463;-74
2021/12/25 03:30:41;;;;;;;20.08;12.27;;;1.20;99.90;;;;;;5110180;28;20481;-73
2021/12/25 03:33:09;;;;;;;20.95;11.45;;;1.20;99.90;;;;;;5109862;28;20038;-73
2021/12/25 03:35:35;;;;;;;19.13;11.07;;;1.10;99.90;;;;;;5111301;28;20024;-73
2021/12/25 03:38:02;;;;;;;20.98;11.60;;;1.10;99.90;;;;;;5109872;28;20035;-73
2021/12/25 03:40:28;;;;;;;17.55;10.88;;;1.00;99.90;;;;;;5109739;28;20030;-73
2021/12/25 03:42:53;;;;;;;18.75;11.05;;;1.00;99.90;;;;;;5109775;28;20099;-74
2021/12/25 03:45:19;;;;;;;19.65;10.73;;;1.00;99.90;;;;;;5109944;28;20020;-74
2021/12/25 03:47:47;;;;;;;20.02;10.75;;;1.00;99.90;;;;;;5109963;28;20020;-73
2021/12/25 03:53:25;;;;;;;20.15;11.50;;;0.90;99.90;;;;;;5111055;28;20034;-74
2021/12/25 03:58:30;;;;;;;19.85;10.80;;;0.90;99.90;;;;;;5109533;28;20396;-73
2021/12/25 04:01:01;;;;;;;21.80;11.35;;;0.80;99.90;;;;;;5109753;28;20023;-73
2021/12/25 04:03:42;;;;;;;25.60;10.98;;;0.80;99.90;;;;;;5111151;28;20012;-74
2021/12/25 04:06:10;;;;;;;16.27;11.05;;;0.90;99.90;;;;;;5110781;28;20372;-73
2021/12/25 04:08:41;;;;;;;18.95;11.48;;;0.90;99.90;;;;;;5092606;28;20020;-73
2021/12/25 04:11:13;;;;;;;20.90;12.02;;;0.80;99.90;;;;;;5111307;28;20085;-74
2021/12/25 04:13:39;;;;;;;17.77;11.10;;;0.80;99.90;;;;;;5093239;28;20107;-72
2021/12/25 04:16:05;;;;;;;22.83;10.88;;;0.80;99.90;;;;;;5109644;28;20409;-72
2021/12/25 04:18:30;;;;;;;14.63;10.32;;;0.70;99.90;;;;;;5110836;28;20062;-71
2021/12/25 04:20:56;;;;;;;22.45;11.50;;;0.70;99.90;;;;;;5109359;28;20073;-74
2021/12/25 04:23:26;;;;;;;19.92;11.52;;;0.70;99.90;;;;;;5110726;28;20028;-72
2021/12/25 04:25:53;;;;;;;17.33;10.13;;;0.70;99.90;;;;;;5103055;28;20024;-73
2021/12/25 04:28:35;;;;;;;17.02;10.45;;;0.70;99.90;;;;;;5095267;28;20047;-72
2021/12/25 04:31:21;;;;;;;22.27;11.52;;;0.60;99.90;;;;;;5095752;28;20028;-72
2021/12/25 05:01:57;;;;;;;12.93;9.00;;;0.50;99.90;;;;;;5095729;28;20426;-72
2021/12/25 05:04:05;;;;;;;17.52;9.93;;;0.50;99.90;;;;;;5094731;28;20037;-73
2021/12/25 05:06:31;;;;;;;16.67;9.98;;;0.40;99.90;;;;;;5094961;28;20040;-73
2021/12/25 05:08:56;;;;;;;18.35;10.38;;;0.40;99.90;;;;;;5094873;28;20509;-74
2021/12/25 05:11:22;;;;;;;17.80;10.90;;;0.40;99.90;;;;;;5096264;28;20020;-74
2021/12/25 05:13:49;;;;;;;16.92;11.60;;;0.40;99.90;;;;;;5077332;28;20554;-74
2021/12/25 05:16:17;;;;;;;18.70;11.10;;;0.40;99.90;;;;;;5095886;28;20061;-74
2021/12/25 05:18:42;;;;;;;26.55;11.90;;;0.40;99.90;;;;;;5094701;28;20020;-74
2021/12/25 05:21:09;;;;;;;19.48;11.55;;;0.40;99.90;;;;;;5094600;28;20480;-74
2021/12/25 05:23:35;;;;;;;20.13;11.60;;;0.40;99.90;;;;;;5095739;28;20064;-74
2021/12/25 05:26:01;;;;;;;17.42;11.75;;;0.40;99.90;;;;;;5095442;28;20020;-73
2021/12/25 05:28:27;;;;;;;19.08;11.82;;;0.40;99.90;;;;;;5094460;28;20481;-74
2021/12/25 05:30:54;;;;;;;23.58;11.13;;;0.40;99.90;;;;;;5094444;28;20097;-74
2021/12/25 05:33:21;;;;;;;20.10;11.98;;;0.40;99.90;;;;;;5077284;28;20465;-74
2021/12/25 05:35:48;;;;;;;20.02;11.23;;;0.40;99.90;;;;;;5094289;28;20043;-73
2021/12/25 05:38:14;;;;;;;22.77;13.25;;;0.40;99.90;;;;;;5092914;28;20027;-73
2021/12/25 05:40:42;;;;;;;22.70;12.75;;;0.40;99.90;;;;;;5094277;28;20016;-74
2021/12/25 05:43:08;;;;;;;22.88;14.20;;;0.30;99.90;;;;;;5093773;28;20069;-75
2021/12/25 05:45:34;;;;;;;23.90;13.20;;;0.30;99.90;;;;;;5094412;28;20036;-74
2021/12/25 05:48:00;;;;;;;24.17;13.93;;;0.30;99.90;;;;;;5094082;28;20025;-74
2021/12/25 05:50:26;;;;;;;27.88;14.52;;;0.30;99.90;;;;;;5094284;28;20031;-74
2021/12/25 05:52:52;;;;;;;22.27;13.85;;;0.30;99.90;;;;;;5095468;28;20058;-75
2021/12/25 05:55:17;;;;;;;25.35;11.95;;;0.30;99.90;;;;;;5093863;28;20456;-75
2021/12/25 05:57:43;;;;;;;27.65;14.18;;;0.30;99.90;;;;;;5095313;28;20034;-74
2021/12/25 06:00:09;;;;;;;26.15;14.10;;;0.30;99.90;;;;;;5093866;28;20063;-74
2021/12/25 06:02:36;;;;;;;24.13;13.60;;;0.20;99.90;;;;;;5094151;28;20054;-74
2021/12/25 06:05:04;;;;;;;28.92;13.55;;;0.20;99.90;;;;;;5095276;28;20497;-74
2021/12/25 06:07:30;;;;;;;26.80;14.35;;;0.20;99.90;;;;;;5095190;28;20172;-74
2021/12/25 06:09:56;;;;;;;22.70;13.95;;;0.20;99.90;;;;;;5094913;28;20024;-75
2021/12/25 06:12:22;;;;;;;23.88;14.55;;;0.30;99.90;;;;;;5094526;28;20404;-74
2021/12/25 06:14:48;;;;;;;27.20;14.27;;;0.20;99.90;;;;;;5076283;28;20035;-74
2021/12/25 06:17:14;;;;;;;25.65;13.75;;;0.20;99.90;;;;;;5094477;28;20027;-74
2021/12/25 06:19:39;;;;;;;22.30;13.15;;;0.20;99.90;;;;;;5094678;28;20453;-74
2021/12/25 06:22:05;;;;;;;21.05;12.80;;;0.10;99.90;;;;;;5093063;28;20469;-75
2021/12/25 06:24:31;;;;;;;22.38;12.80;;;0.10;99.90;;;;;;5093421;28;20064;-74
2021/12/25 06:26:57;;;;;;;21.08;12.10;;;0.10;99.90;;;;;;5076477;28;20377;-72
2021/12/25 06:29:23;;;;;;;18.75;11.73;;;0.10;99.90;;;;;;5094749;28;20034;-72
2021/12/25 06:31:50;;;;;;;17.08;10.40;;;0.10;99.90;;;;;;5094783;28;20039;-72
2021/12/25 06:34:16;;;;;;;18.02;11.00;;;0.10;99.90;;;;;;5077137;28;20376;-71
2021/12/25 06:36:42;;;;;;;21.20;10.98;;;0.10;99.90;;;;;;5093220;28;20484;-74
2021/12/25 06:39:12;;;;;;;15.95;9.95;;;0.10;99.90;;;;;;5094686;28;20020;-75
2021/12/25 06:41:37;;;;;;;14.73;10.00;;;0.10;99.90;;;;;;5094600;28;20024;-74
2021/12/25 06:44:03;;;;;;;14.35;9.43;;;0.00;99.90;;;;;;5093130;28;20028;-74
2021/12/25 06:46:28;;;;;;;15.15;8.57;;;0.00;99.90;;;;;;5094478;28;20047;-73
2021/12/25 06:48:55;;;;;;;14.95;9.23;;;0.00;99.90;;;;;;5092640;28;20112;-74
2021/12/25 06:51:21;;;;;;;11.98;7.93;;;0.00;99.90;;;;;;5092746;28;20094;-74
2021/12/25 06:53:46;;;;;;;13.38;7.82;;;0.00;99.90;;;;;;5093175;28;20468;-74
2021/12/25 06:56:12;;;;;;;14.15;8.02;;;-0.10;99.90;;;;;;5093234;28;20020;-74
2021/12/25 06:58:38;;;;;;;12.32;7.05;;;-0.10;99.90;;;;;;5076494;28;20026;-74
2021/12/25 07:01:04;;;;;;;11.77;6.70;;;-0.10;99.90;;;;;;5094325;28;20024;-74
2021/12/25 07:03:37;;;;;;;10.05;6.57;;;-0.10;99.90;;;;;;5094287;28;20369;-74
2021/12/25 07:06:02;;;;;;;;;;;-0.10;99.90;;;;;;5092946;28;20416;-74
2021/12/25 07:08:28;;;;;;;9.68;4.85;;;-0.10;99.90;;;;;;5092388;28;19911;-74
2021/12/25 07:10:53;;;;;;;9.98;6.10;;;-0.20;99.90;;;;;;5092755;28;20099;-74
2021/12/25 07:13:20;;;;;;;10.10;5.10;;;-0.20;99.90;;;;;;5075507;28;20123;-74
2021/12/25 07:15:47;;;;;;;9.27;5.10;;;-0.20;99.90;;;;;;5092188;28;20036;-74
2021/12/25 07:18:13;;;;;;;8.15;4.85;;;-0.20;99.90;;;;;;5092345;28;20020;-73
2021/12/25 07:20:39;;;;;;;5.82;4.32;;;-0.20;99.90;;;;;;5094061;28;20080;-74
2021/12/25 07:23:04;;;;;;;8.50;5.20;;;-0.30;99.90;;;;;;5094035;28;20024;-74
2021/12/25 07:25:30;;;;;;;6.82;3.67;;;-0.20;99.90;;;;;;5092208;28;20024;-74
2021/12/25 07:27:56;;;;;;;7.07;3.30;;;-0.20;99.90;;;;;;5075423;28;20025;-74
2021/12/25 07:30:22;;;;;;;4.70;3.55;;;-0.30;99.90;;;;;;5092160;28;20158;-73
2021/12/25 07:32:48;;;;;;;5.63;3.70;;;-0.30;99.90;;;;;;5075416;28;20054;-74
2021/12/25 07:35:13;;;;;;;6.88;3.38;;;-0.40;99.90;;;;;;5093907;28;20021;-74
2021/12/25 07:37:39;;;;;;;7.18;3.55;;;-0.40;99.90;;;;;;5092774;28;20453;-74
2021/12/25 07:40:06;;;;;;;4.40;2.97;;;-0.30;99.90;;;;;;5076123;28;20074;-74
2021/12/25 07:42:32;;;;;;;6.00;3.13;;;-0.40;99.90;;;;;;5093622;28;20099;-74
2021/12/25 07:45:03;;;;;;;5.28;2.70;;;-0.40;99.90;;;;;;5093582;28;20477;-74
2021/12/25 07:47:32;;;;;;;5.05;2.88;;;-0.40;99.90;;;;;;5092470;28;20051;-74
2021/12/25 07:49:59;;;;;;;7.50;3.10;;;-0.40;99.90;;;;;;5092010;28;20473;-74
2021/12/25 07:52:26;;;;;;;7.65;3.50;;;-0.40;99.90;;;;;;5075428;28;20032;-73
2021/12/25 07:54:51;;;;;;;4.10;2.42;;;-0.50;99.90;;;;;;5093480;28;20028;-74
2021/12/25 07:57:17;;;;;;;7.47;3.00;;;-0.50;99.90;;;;;;5093784;28;20030;-75
2021/12/25 07:59:42;;;;;;;9.32;2.63;;;-0.50;99.90;;;;;;5093794;28;20024;-74
2021/12/25 08:02:08;;;;;;;5.53;3.00;;;-0.50;99.90;;;;;;5096577;28;20520;-74
2021/12/25 08:04:34;;;;;;;6.05;2.60;;;-0.50;99.90;;;;;;5078842;28;20024;-73
2021/12/25 08:07:00;;;;;;;6.53;2.63;;;-0.50;99.90;;;;;;5095677;28;20404;-75
2021/12/25 08:09:30;;;;;;;4.63;2.63;;;-0.50;99.90;;;;;;5095734;28;20035;-75
2021/12/25 08:12:00;;;;;;;4.05;2.78;;;-0.50;99.90;;;;;;5095974;28;20066;-75
2021/12/25 08:14:27;;;;;;;3.90;2.25;;;-0.50;99.90;;;;;;5096844;28;20075;-75
2021/12/25 08:16:54;;;;;;;3.83;1.88;;;-0.50;99.90;;;;;;5078725;28;20021;-75
2021/12/25 08:19:21;;;;;;;6.40;2.42;;;-0.50;99.90;;;;;;5096269;28;20020;-75
2021/12/25 08:21:47;;;;;;;5.50;2.22;;;-0.50;99.90;;;;;;5095760;28;20491;-75
2021/12/25 08:24:13;;;;;;;4.38;2.30;;;-0.60;99.90;;;;;;5096230;28;20031;-73
2021/12/25 08:26:38;;;;;;;2.92;2.17;;;-0.50;99.90;;;;;;5095917;28;20093;-75
2021/12/25 08:29:04;;;;;;;4.22;2.25;;;-0.50;99.90;;;;;;5096794;28;20066;-75
2021/12/25 08:31:29;;;;;;;2.22;1.42;;;-0.50;99.90;;;;;;5078462;28;20060;-74
2021/12/25 08:33:55;;;;;;;2.53;1.80;;;-0.60;99.90;;;;;;5095056;28;20111;-74
2021/12/25 08:36:21;;;;;;;4.35;1.95;;;-0.60;99.90;;;;;;5078279;28;20035;-75
2021/12/25 08:38:46;;;;;;;3.42;1.92;;;-0.60;99.90;;;;;;5095077;28;20024;-75
2021/12/25 08:41:12;;;;;;;6.63;2.20;;;-0.60;99.90;;;;;;5095418;28;20541;-74
2021/12/25 08:43:46;;;;;;;4.15;1.70;;;-0.60;99.90;;;;;;5095391;28;20140;-74
2021/12/25 08:46:17;;;;;;;4.63;2.50;;;-0.70;99.90;;;;;;5097651;28;20020;-75
2021/12/25 08:48:42;;;;;;;3.38;1.80;;;-0.70;99.90;;;;;;5078641;28;20063;-75
2021/12/25 08:51:09;;;;;;;2.78;1.60;;;-0.70;99.90;;;;;;5095212;28;20036;-75
2021/12/25 08:53:34;;;;;;;7.25;2.25;;;-0.80;99.90;;;;;;5095133;28;20085;-75
2021/12/25 08:56:00;;;;;;;4.53;2.00;;;-0.80;99.90;;;;;;5095358;28;20024;-75
2021/12/25 08:58:30;;;;;;;4.47;2.08;;;-0.70;99.90;;;;;;5095089;28;20021;-75
2021/12/25 09:00:57;;;;;;;4.63;1.80;;;-0.70;99.90;;;;;;5094633;28;20111;-75
2021/12/25 09:03:25;;;;;;;4.30;2.10;;;-0.70;99.90;;;;;;5094645;28;20175;-75
2021/12/25 09:05:53;;;;;;;3.03;2.00;;;-0.70;99.90;;;;;;5095214;28;20035;-75
2021/12/25 09:08:18;;;;;;;4.78;2.00;;;-0.70;99.90;;;;;;5096638;28;20027;-75
2021/12/25 09:10:44;;;;;;;5.15;2.15;;;-0.80;99.90;;;;;;5094556;28;20040;-75
2021/12/25 09:13:09;;;;;;;6.22;2.05;;;-0.80;99.90;;;;;;5094673;28;20024;-75
2021/12/25 09:15:35;;;;;;;5.80;2.28;;;-0.70;99.90;;;;;;5094106;28;20040;-74
2021/12/25 09:18:00;;;;;;;5.38;1.90;;;-0.70;99.90;;;;;;5094720;28;20077;-75
2021/12/25 09:20:26;;;;;;;4.20;2.33;;;-0.70;99.90;;;;;;5077514;28;20073;-75
2021/12/25 09:22:52;;;;;;;5.93;2.70;;;-0.70;99.90;;;;;;5096066;28;20024;-75
2021/12/25 09:25:18;;;;;;;8.85;2.33;;;-0.70;99.90;;;;;;5077385;28;20028;-73
2021/12/25 09:27:44;;;;;;;7.45;2.15;;;-0.80;99.90;;;;;;5094166;28;20496;-75
2021/12/25 09:30:10;;;;;;;5.28;2.00;;;-0.80;99.90;;;;;;5095913;28;20058;-74
2021/12/25 09:32:37;;;;;;;6.72;2.38;;;-0.80;99.90;;;;;;5094396;28;20433;-75
2021/12/25 09:35:03;;;;;;;7.38;2.45;;;-0.80;99.90;;;;;;5094574;28;20056;-75
2021/12/25 09:37:29;;;;;;;6.63;2.22;;;-0.70;99.90;;;;;;5077629;28;20055;-75
2021/12/25 09:39:56;;;;;;;7.07;2.60;;;-0.70;99.90;;;;;;5093916;28;20501;-74
2021/12/25 09:42:24;;;;;;;5.85;2.78;;;-0.70;99.90;;;;;;5093807;28;20059;-74
2021/12/25 09:44:51;;;;;;;4.85;2.35;;;-0.60;99.90;;;;;;5094204;28;20476;-74
2021/12/25 09:47:16;;;;;;;4.75;1.95;;;-0.70;99.90;;;;;;5094313;28;20080;-75
2021/12/25 09:49:42;;;;;;;5.72;2.20;;;-0.80;99.90;;;;;;5093738;28;20443;-75
2021/12/25 09:52:07;;;;;;;10.25;2.53;;;-0.80;99.90;;;;;;5095436;28;20529;-75
2021/12/25 09:54:33;;;;;;;6.72;2.38;;;-0.60;99.90;;;;;;5076710;28;20116;-73
2021/12/25 09:56:59;;;;;;;5.03;2.10;;;-0.30;99.90;;;;;;5093603;28;20526;-73
2021/12/25 09:59:26;;;;;;;5.18;2.13;;;0.10;99.90;;;;;;5077503;28;20028;-73
2021/12/25 10:01:54;;;;;;;3.55;1.60;;;0.40;99.90;;;;;;5093891;28;20032;-73
2021/12/25 10:04:42;;;;;;;5.20;2.25;;;1.00;99.90;;;;;;5076525;28;20077;-75
2021/12/25 10:07:29;;;;;;;5.50;2.00;;;1.50;99.90;;;;;;5094608;28;20055;-74
2021/12/25 10:10:16;;;;;;;6.32;3.17;;;1.20;99.90;;;;;;5093340;28;20382;-75
2021/12/25 10:12:46;;;;;;;6.25;1.77;;;1.50;99.90;;;;;;5077084;28;20027;-75
2021/12/25 10:15:15;;;;;;;5.22;2.00;;;2.00;99.90;;;;;;5076573;28;20044;-74
2021/12/25 10:17:45;;;;;;;5.10;2.17;;;2.10;99.90;;;;;;5095011;28;20028;-75
2021/12/25 10:20:15;;;;;;;7.03;2.13;;;1.70;99.90;;;;;;5093964;28;20028;-74
2021/12/25 10:25:47;;;;;;;3.60;1.85;;;0.90;99.90;;;;;;5112265;27;20306;-75
2021/12/25 10:28:15;;;;;;;4.35;2.28;;;1.80;99.90;;;;;;5111426;28;20035;-75
2021/12/25 10:30:45;;;;;;;6.32;2.67;;;1.80;99.90;;;;;;5111607;28;20023;-75
2021/12/25 10:33:34;;;;;;;5.03;2.40;;;1.80;99.90;;;;;;5092819;28;20449;-75
2021/12/25 10:36:04;;;;;;;3.72;1.55;;;1.90;99.90;;;;;;5109627;28;20415;-76
2021/12/25 10:38:30;;;;;;;4.85;2.30;;;2.10;99.90;;;;;;5110001;28;20015;-75
2021/12/25 10:41:19;;;;;;;2.25;1.67;;;2.60;99.90;;;;;;5110009;28;20347;-75
2021/12/25 10:43:47;;;;;;;5.47;2.22;;;2.90;99.90;;;;;;5110158;28;20522;-75
2021/12/25 10:46:13;;;;;;;5.05;1.40;;;2.40;99.90;;;;;;5093379;28;20062;-77
2021/12/25 10:48:38;;;;;;;6.10;2.13;;;2.10;99.90;;;;;;5111256;28;20051;-74
2021/12/25 10:51:04;;;;;;;3.70;1.50;;;2.30;99.90;;;;;;5111962;28;20111;-74
2021/12/25 10:53:41;;;;;;;5.28;1.70;;;2.70;99.90;;;;;;5129458;28;20023;-76
2021/12/25 10:56:14;;;;;;;2.28;1.40;;;3.20;99.90;;;;;;5111531;28;20020;-76
2021/12/25 10:58:41;;;;;;;;;;;2.70;99.90;;;;;;5109999;28;20092;-76
2021/12/25 11:01:11;;;;;;;4.20;1.58;;;2.90;99.90;;;;;;5144269;27;19899;-75
2021/12/25 11:03:39;;;;;;;2.17;1.52;;;3.10;99.90;;;;;;5110664;28;20016;-75
2021/12/25 11:06:08;;;;;;;3.15;1.35;;;3.00;99.90;;;;;;5109846;28;20020;-75
2021/12/25 11:08:36;;;;;;;3.78;1.55;;;2.90;99.90;;;;;;5092451;28;20377;-75
2021/12/25 11:11:07;;;;;;;2.47;1.52;;;3.00;99.90;;;;;;5111151;28;20008;-75
2021/12/25 11:13:43;;;;;;;2.40;1.50;;;2.70;99.90;;;;;;5109383;28;20047;-74
2021/12/25 11:19:10;;;;;;;2.47;1.60;;;2.60;99.90;;;;;;5112268;27;20354;-75
2021/12/25 11:21:54;;;;;;;1.67;1.20;;;2.80;99.90;;;;;;5110171;28;20024;-75
2021/12/25 11:24:24;;;;;;;1.98;1.38;;;3.10;99.90;;;;;;5110115;28;20048;-74
2021/12/25 11:26:57;;;;;;;1.95;1.25;;;2.60;99.90;;;;;;5110119;28;20049;-75
2021/12/25 11:29:26;;;;;;;1.85;1.30;;;1.80;99.90;;;;;;5093988;28;20024;-75
2021/12/25 11:31:53;;;;;;;2.22;1.23;;;1.40;99.90;;;;;;5109946;28;20530;-75
2021/12/25 11:34:20;;;;;;;3.20;1.50;;;1.40;99.90;;;;;;5109844;28;20054;-75
2021/12/25 11:36:48;;;;;;;3.58;1.75;;;1.20;99.90;;;;;;5093122;28;20032;-75
2021/12/25 11:39:17;;;;;;;4.93;2.25;;;1.50;99.90;;;;;;5109925;28;20126;-75
2021/12/25 11:41:43;;;;;;;2.30;1.38;;;1.30;99.90;;;;;;5111047;28;20030;-75
2021/12/25 11:44:30;;;;;;;2.97;1.58;;;1.30;99.90;;;;;;5109838;28;20080;-75
2021/12/25 11:46:56;;;;;;;3.88;1.58;;;1.50;99.90;;;;;;5109711;28;20031;-74
2021/12/25 11:49:21;;;;;;;2.97;1.40;;;1.30;99.90;;;;;;5092656;28;20028;-74
2021/12/25 11:51:47;;;;;;;2.03;1.50;;;1.30;99.90;;;;;;5109576;28;20020;-74
2021/12/25 11:57:46;;;;;;;2.35;1.27;;;1.30;99.90;;;;;;5110845;28;20464;-75
2021/12/25 11:59:52;;;;;;;3.15;1.55;;;1.40;99.90;;;;;;5109528;28;20485;-74
2021/12/25 12:02:42;;;;;;;5.13;1.83;;;1.20;99.90;;;;;;5092626;28;20024;-74
2021/12/25 12:05:27;;;;;;;4.03;1.80;;;1.10;99.90;;;;;;5092301;28;20024;-75
2021/12/25 12:07:58;;;;;;;1.90;1.30;;;1.20;99.90;;;;;;5092686;28;20084;-74
2021/12/25 12:13:25;;;;;;;3.35;1.17;;;1.10;99.90;;;;;;5112167;27;20133;-72
2021/12/25 12:15:53;;;;;;;1.45;1.17;;;1.00;99.90;;;;;;5111680;28;20046;-74
2021/12/25 12:21:09;;;;;;;1.65;1.10;;;1.20;99.90;;;;;;5112345;27;20342;-75
2021/12/25 12:23:54;;;;;;;2.47;1.13;;;1.40;99.90;;;;;;5094734;28;20056;-75
2021/12/25 12:26:50;;;;;;;1.92;1.00;;;1.40;99.90;;;;;;5110926;28;20016;-75
2021/12/25 12:32:31;;;;;;;2.97;1.10;;;1.20;99.90;;;;;;5112323;27;20396;-75
2021/12/25 12:34:56;;;;;;;2.47;1.33;;;1.10;99.90;;;;;;5112063;28;20382;-75
2021/12/25 12:45:26;;;;;;;1.73;1.20;;;1.00;99.90;;;;;;5091883;28;20356;-76
2021/12/25 12:48:07;;;;;;;1.27;1.02;;;1.10;99.90;;;;;;5089764;28;20021;-75
2021/12/25 12:50:35;;;;;;;3.08;1.70;;;1.10;99.90;;;;;;5089804;28;20103;-73
2021/12/25 12:53:02;;;;;;;2.20;1.60;;;1.10;99.90;;;;;;5072817;28;20126;-74
2021/12/25 12:55:32;;;;;;;2.65;0.93;;;1.10;99.90;;;;;;5089993;28;20063;-74
2021/12/25 12:58:08;;;;;;;4.28;1.30;;;1.00;99.90;;;;;;5090117;28;20025;-75
2021/12/25 13:00:34;;;;;;;2.85;1.50;;;0.90;99.90;;;;;;5072872;28;20359;-74
2021/12/25 13:03:00;;;;;;;1.83;0.95;;;0.90;99.90;;;;;;5072655;28;20089;-74
2021/12/25 13:05:31;;;;;;;4.13;1.60;;;0.90;99.90;;;;;;5072616;28;20388;-73
2021/12/25 13:08:00;;;;;;;2.67;1.55;;;0.90;99.90;;;;;;5089812;28;20027;-75
2021/12/25 13:10:43;;;;;;;1.83;1.40;;;1.00;99.90;;;;;;5089282;28;20016;-75
2021/12/25 13:13:11;;;;;;;;;;;0.90;99.90;;;;;;5074717;28;20435;-74
2021/12/25 13:15:37;;;;;;;3.47;1.50;;;0.90;99.90;;;;;;5090829;28;19904;-75
2021/12/25 13:18:05;;;;;;;3.55;1.25;;;0.80;99.90;;;;;;5089467;28;20388;-75
2021/12/25 13:20:49;;;;;;;4.47;2.20;;;0.80;99.90;;;;;;5089530;28;20454;-75
2021/12/25 13:23:21;;;;;;;1.67;1.00;;;0.90;99.90;;;;;;5075311;28;20028;-73
2021/12/25 13:25:52;;;;;;;3.20;1.40;;;0.80;99.90;;;;;;5072815;28;20020;-74
2021/12/25 13:28:20;;;;;;;1.75;1.25;;;0.80;99.90;;;;;;5089470;28;20020;-74
2021/12/25 13:30:49;;;;;;;3.63;1.52;;;0.60;99.90;;;;;;5089682;28;20017;-74
2021/12/25 13:33:19;;;;;;;2.20;1.00;;;0.50;99.90;;;;;;5072137;28;20429;-73
2021/12/25 13:35:45;;;;;;;1.95;0.98;;;0.50;99.90;;;;;;5088902;28;20024;-74
2021/12/25 13:38:11;;;;;;;1.55;0.90;;;0.50;99.90;;;;;;5089180;28;20527;-74
2021/12/25 13:40:38;;;;;;;1.35;1.20;;;0.50;99.90;;;;;;5071939;28;20036;-74
2021/12/25 13:43:07;;;;;;;2.65;1.52;;;0.50;99.90;;;;;;5071646;28;20394;-74
2021/12/25 13:45:33;;;;;;;3.25;2.08;;;0.50;99.90;;;;;;5088787;28;20021;-74
2021/12/25 13:47:59;;;;;;;4.13;1.67;;;0.50;99.90;;;;;;5071771;28;20107;-73
2021/12/25 13:50:25;;;;;;;4.07;1.40;;;0.50;99.90;;;;;;5089008;28;20067;-74
2021/12/25 13:52:58;;;;;;;1.23;1.00;;;0.50;99.90;;;;;;5088913;28;20492;-74
2021/12/25 13:55:29;;;;;;;2.72;1.00;;;0.50;99.90;;;;;;5082222;28;20021;-72
2021/12/25 13:58:00;;;;;;;3.25;1.38;;;0.50;99.90;;;;;;5075634;28;20021;-72
2021/12/25 14:00:30;;;;;;;4.43;2.00;;;0.50;99.90;;;;;;5075227;28;20479;-73
2021/12/25 14:03:01;;;;;;;4.63;2.10;;;0.50;99.90;;;;;;5058470;28;20354;-73
2021/12/25 14:05:29;;;;;;;5.95;2.08;;;0.50;99.90;;;;;;5059352;28;20043;-72
2021/12/25 14:07:55;;;;;;;4.18;1.33;;;0.40;99.90;;;;;;5074855;28;20420;-73
2021/12/25 14:10:24;;;;;;;1.90;1.23;;;0.30;99.90;;;;;;5058087;28;20021;-73